createdAt,value
2019-01-11T00:01:23.595Z,99088.52
2019-01-11T00:03:54.305Z,99092.13
2019-01-11T00:06:25.261Z,99094.91
2019-01-11T00:08:55.907Z,99097.02
2019-01-11T00:11:26.678Z,99093.41
2019-01-11T00:13:57.566Z,99100.10
2019-01-11T00:16:28.203Z,99097.44
2019-01-11T00:18:58.913Z,99089.46
2019-01-11T00:21:29.496Z,99091.58
2019-01-11T00:24:00.199Z,99090.42
2019-01-11T00:26:34.186Z,99086.47
2019-01-11T00:29:05.215Z,99091.16
2019-01-11T00:31:37.413Z,99092.23
2019-01-11T00:34:08.000Z,99104.29
2019-01-11T00:36:41.552Z,99095.27
2019-01-11T00:39:12.174Z,99097.30
2019-01-11T00:41:42.864Z,99090.37
2019-01-11T00:44:13.429Z,99087.24
2019-01-11T00:46:44.137Z,99097.09
2019-01-11T00:49:14.735Z,99097.43
2019-01-11T00:51:45.239Z,99106.36
2019-01-11T00:54:15.859Z,99103.31
2019-01-11T00:56:46.419Z,99110.09
2019-01-11T00:59:17.252Z,99108.93
2019-01-11T01:01:47.894Z,99111.05
2019-01-11T01:04:18.456Z,99109.64
2019-01-11T01:06:49.060Z,99109.39
2019-01-11T01:09:19.682Z,99113.92
2019-01-11T01:11:50.738Z,99113.84
2019-01-11T01:14:21.521Z,99111.97
2019-01-11T01:16:52.101Z,99107.73
2019-01-11T01:19:25.596Z,99115.95
2019-01-11T01:21:57.675Z,99112.89
2019-01-11T01:24:28.311Z,99115.38
2019-01-11T01:26:58.889Z,99121.81
2019-01-11T01:29:29.545Z,99115.16
2019-01-11T01:32:00.715Z,99106.14
2019-01-11T01:34:31.290Z,99114.66
2019-01-11T01:37:01.902Z,99116.75
2019-01-11T01:39:32.463Z,99102.49
2019-01-11T01:42:03.071Z,99095.93
2019-01-11T01:44:33.627Z,99096.20
2019-01-11T01:47:04.167Z,99098.33
2019-01-11T01:49:34.730Z,99090.47
2019-01-11T01:52:05.558Z,99088.27
2019-01-11T01:54:36.250Z,99087.34
2019-01-11T01:57:06.814Z,99088.27
2019-01-11T01:59:37.339Z,99083.48
2019-01-11T02:02:08.197Z,99080.41
2019-01-11T02:04:38.803Z,99085.39
2019-01-11T02:07:09.572Z,99086.19
2019-01-11T02:09:40.102Z,99089.80
2019-01-11T02:12:10.620Z,99087.44
2019-01-11T02:14:42.332Z,99090.11
2019-01-11T02:17:13.941Z,99081.45
2019-01-11T02:19:44.557Z,99077.09
2019-01-11T02:22:15.400Z,99082.70
2019-01-11T02:24:46.021Z,99079.09
2019-01-11T02:27:16.619Z,99075.81
2019-01-11T02:29:47.198Z,99082.12
2019-01-11T02:32:17.803Z,99073.33
2019-01-11T02:34:49.396Z,99079.30
2019-01-11T02:37:22.697Z,99069.92
2019-01-11T02:39:53.435Z,99071.87
2019-01-11T02:42:24.050Z,99070.71
2019-01-11T02:44:54.679Z,99065.77
2019-01-11T02:47:25.223Z,99059.51
2019-01-11T02:49:55.775Z,99068.89
2019-01-11T02:52:26.327Z,99067.15
2019-01-11T02:54:57.026Z,99069.35
2019-01-11T02:57:27.513Z,99065.61
2019-01-11T02:59:58.061Z,99062.45
2019-01-11T03:02:28.656Z,99059.88
2019-01-11T03:04:59.570Z,99066.56
2019-01-11T03:07:30.180Z,99068.22
2019-01-11T03:10:00.713Z,99060.25
2019-01-11T03:12:31.442Z,99059.33
2019-01-11T03:15:02.124Z,99058.50
2019-01-11T03:17:32.704Z,99059.67
2019-01-11T03:20:06.304Z,99063.91
2019-01-11T03:22:37.047Z,99059.42
2019-01-11T03:25:08.309Z,99061.17
2019-01-11T03:27:38.980Z,99066.11
2019-01-11T03:30:16.782Z,99061.91
2019-01-11T03:32:47.388Z,99054.98
2019-01-11T03:35:22.614Z,99051.02
2019-01-11T03:37:54.877Z,99051.27
2019-01-11T03:40:27.360Z,99042.04
2019-01-11T03:42:58.015Z,99045.69
2019-01-11T03:45:30.069Z,99042.66
2019-01-11T03:48:00.701Z,99045.14
2019-01-11T03:50:33.827Z,99041.27
2019-01-11T03:53:04.464Z,99034.38
2019-01-11T03:55:35.042Z,99037.41
2019-01-11T03:58:05.768Z,99041.06
2019-01-11T04:00:36.534Z,99036.58
2019-01-11T04:03:07.215Z,99036.67
2019-01-11T04:05:40.698Z,99036.12
2019-01-11T04:08:11.286Z,99036.95
2019-01-11T04:10:41.794Z,99036.73
2019-01-11T04:13:12.375Z,99045.54
2019-01-11T04:15:42.999Z,99040.14
2019-01-11T04:18:29.967Z,99049.38
2019-01-11T04:21:00.542Z,99040.02
2019-01-11T04:23:31.149Z,99036.89
2019-01-11T04:26:01.698Z,99037.96
2019-01-11T04:28:32.221Z,99040.41
2019-01-11T04:31:02.876Z,99033.64
2019-01-11T04:33:33.491Z,99037.05
2019-01-11T04:36:04.127Z,99031.52
2019-01-11T04:38:36.768Z,99025.97
2019-01-11T04:41:07.554Z,99027.41
2019-01-11T04:43:38.144Z,99027.41
2019-01-11T04:46:09.320Z,99034.09
2019-01-11T04:48:40.169Z,99037.05
2019-01-11T04:51:11.093Z,99032.66
2019-01-11T04:53:41.724Z,99030.54
2019-01-11T04:56:12.451Z,99030.17
2019-01-11T04:58:42.999Z,99030.54
2019-01-11T05:01:13.788Z,99031.98
2019-01-11T05:03:44.613Z,99030.08
2019-01-11T05:06:15.305Z,99024.71
2019-01-11T05:08:49.349Z,99031.00
2019-01-11T05:11:22.098Z,99023.70
2019-01-11T05:13:59.961Z,99023.55
2019-01-11T05:16:31.222Z,99022.41
2019-01-11T05:19:03.723Z,99022.47
2019-01-11T05:21:34.678Z,99018.64
2019-01-11T05:24:05.833Z,99018.85
2019-01-11T05:26:36.634Z,99014.90
2019-01-11T05:29:07.355Z,99016.34
2019-01-11T05:31:37.931Z,99014.71
2019-01-11T05:34:08.505Z,99017.20
2019-01-11T05:36:39.166Z,99020.17
2019-01-11T05:39:10.880Z,99012.81
2019-01-11T05:41:41.534Z,99017.96
2019-01-11T05:44:12.203Z,99011.89
2019-01-11T05:46:42.750Z,99014.62
2019-01-11T05:49:13.296Z,99014.83
2019-01-11T05:51:44.012Z,99015.20
2019-01-11T05:54:16.394Z,99015.30
2019-01-11T05:56:47.098Z,99014.25
2019-01-11T05:59:17.648Z,99014.03
2019-01-11T06:01:50.981Z,99017.72
2019-01-11T06:04:43.501Z,99017.72
2019-01-11T06:07:22.655Z,99014.19
2019-01-11T06:09:53.264Z,99010.32
2019-01-11T06:12:23.904Z,99005.29
2019-01-11T06:14:54.522Z,99009.16
2019-01-11T06:17:25.176Z,99007.96
2019-01-11T06:19:55.768Z,99011.15
2019-01-11T06:22:28.079Z,99009.77
2019-01-11T06:24:58.592Z,99006.61
2019-01-11T06:27:29.269Z,99004.03
2019-01-11T06:29:59.842Z,99007.67
2019-01-11T06:32:30.433Z,99006.14
2019-01-11T06:35:00.973Z,99006.61
2019-01-11T06:37:31.602Z,99005.78
2019-01-11T06:40:02.159Z,99010.47
2019-01-11T06:42:32.770Z,99007.43
2019-01-11T06:45:03.297Z,99005.69
2019-01-11T06:47:33.871Z,99013.88
2019-01-11T06:50:05.702Z,99006.97
2019-01-11T06:52:36.242Z,99007.67
2019-01-11T06:55:07.374Z,99006.30
2019-01-11T06:57:37.940Z,99006.30
2019-01-11T07:00:13.078Z,99002.19
2019-01-11T07:02:44.331Z,99000.31
2019-01-11T07:05:14.925Z,98992.95
2019-01-11T07:07:45.511Z,98995.06
2019-01-11T07:10:19.193Z,98987.91
2019-01-11T07:12:49.788Z,98982.41
2019-01-11T07:15:20.336Z,98989.78
2019-01-11T07:17:50.950Z,98995.40
2019-01-11T07:20:21.519Z,98988.95
2019-01-11T07:22:52.080Z,98989.20
2019-01-11T07:25:22.654Z,98996.73
2019-01-11T07:28:01.463Z,98986.89
2019-01-11T07:30:41.809Z,98993.16
2019-01-11T07:33:15.265Z,98991.05
2019-01-11T07:35:51.709Z,98991.44
2019-01-11T07:38:22.660Z,98988.73
2019-01-11T07:40:53.229Z,98994.94
2019-01-11T07:43:23.834Z,98990.83
2019-01-11T07:45:54.425Z,98987.28
2019-01-11T07:48:26.102Z,98991.29
2019-01-11T07:50:56.594Z,98989.08
2019-01-11T07:53:27.327Z,98989.54
2019-01-11T07:55:57.890Z,98992.48
2019-01-11T07:58:28.452Z,98987.35
2019-01-11T08:00:59.045Z,98982.56
2019-01-11T08:03:29.616Z,98985.48
2019-01-11T08:06:00.169Z,98981.05
2019-01-11T08:08:33.685Z,98982.13
2019-01-11T08:11:04.285Z,98976.38
2019-01-11T08:13:34.795Z,98974.75
2019-01-11T08:16:05.355Z,98981.67
2019-01-11T08:18:37.555Z,98980.75
2019-01-11T08:21:08.113Z,98984.63
2019-01-11T08:23:38.707Z,98983.81
2019-01-11T08:26:09.202Z,98992.50
2019-01-11T08:28:40.010Z,98983.81
2019-01-11T08:31:10.580Z,98989.80
2019-01-11T08:33:41.205Z,98983.95
2019-01-11T08:36:11.763Z,98982.57
2019-01-11T08:38:42.283Z,98985.25
2019-01-11T08:41:12.846Z,98986.53
2019-01-11T08:43:43.499Z,98989.09
2019-01-11T08:46:14.062Z,98980.31
2019-01-11T08:48:45.111Z,98982.65
2019-01-11T08:51:18.938Z,98979.10
2019-01-11T08:53:49.531Z,98983.43
2019-01-11T08:56:20.192Z,98977.49
2019-01-11T08:58:50.823Z,98976.57
2019-01-11T09:01:21.322Z,98970.60
2019-01-11T09:03:51.972Z,98971.57
2019-01-11T09:06:22.784Z,98970.38
2019-01-11T09:08:53.371Z,98981.52
2019-01-11T09:11:23.916Z,98974.24
2019-01-11T09:13:54.473Z,98968.02
2019-01-11T09:16:25.012Z,98973.08
2019-01-11T09:18:57.870Z,98975.85
2019-01-11T09:21:28.447Z,98964.39
2019-01-11T09:23:59.077Z,98962.78
2019-01-11T09:26:29.619Z,98954.67
2019-01-11T09:29:00.560Z,98963.61
2019-01-11T09:31:31.129Z,98959.14
2019-01-11T09:34:01.689Z,98960.80
2019-01-11T09:36:32.250Z,98965.96
2019-01-11T09:39:03.461Z,98969.47
2019-01-11T09:41:34.058Z,98965.36
2019-01-11T09:44:04.662Z,98968.62
2019-01-11T09:46:35.218Z,98965.34
2019-01-11T09:49:05.896Z,98972.27
2019-01-11T09:51:36.462Z,98979.69
2019-01-11T09:54:07.276Z,98976.29
2019-01-11T09:56:39.308Z,98974.08
2019-01-11T09:59:09.994Z,98974.44
2019-01-11T10:01:40.573Z,98968.31
2019-01-11T10:04:15.054Z,98974.06
2019-01-11T10:06:55.536Z,98974.20
2019-01-11T10:09:26.133Z,98978.87
2019-01-11T10:11:56.680Z,98979.61
2019-01-11T10:14:27.306Z,98978.67
2019-01-11T10:16:57.836Z,98982.18
2019-01-11T10:19:28.411Z,98980.66
2019-01-11T10:21:59.086Z,98983.11
2019-01-11T10:24:29.659Z,98983.01
2019-01-11T10:27:00.147Z,98982.05
2019-01-11T10:29:30.699Z,98980.56
2019-01-11T10:32:01.315Z,98979.46
2019-01-11T10:34:31.855Z,98979.00
2019-01-11T10:37:02.408Z,98975.36
2019-01-11T10:39:33.012Z,98973.70
2019-01-11T10:42:06.821Z,98973.94
2019-01-11T10:44:37.402Z,98971.26
2019-01-11T10:47:07.908Z,98968.82
2019-01-11T10:49:38.470Z,98972.60
2019-01-11T10:52:09.050Z,98972.23
2019-01-11T10:54:43.585Z,98967.55
2019-01-11T10:57:14.214Z,98968.73
2019-01-11T10:59:44.794Z,98956.06
2019-01-11T11:02:15.356Z,98958.19
2019-01-11T11:04:45.938Z,98954.31
2019-01-11T11:07:17.867Z,98950.09
2019-01-11T11:09:48.457Z,98948.23
2019-01-11T11:12:18.976Z,98936.76
2019-01-11T11:14:51.276Z,98938.98
2019-01-11T11:17:21.910Z,98939.38
2019-01-11T11:19:52.685Z,98938.78
2019-01-11T11:22:23.230Z,98934.44
2019-01-11T11:24:53.802Z,98934.44
2019-01-11T11:27:24.403Z,98930.21
2019-01-11T11:29:54.978Z,98929.61
2019-01-11T11:32:36.840Z,98937.26
2019-01-11T11:35:07.758Z,98930.11
2019-01-11T11:37:38.274Z,98921.91
2019-01-11T11:40:09.894Z,98915.81
2019-01-11T11:42:40.453Z,98916.41
2019-01-11T11:45:12.240Z,98908.30
2019-01-11T11:47:42.940Z,98916.50
2019-01-11T11:50:13.736Z,98916.17
2019-01-11T11:52:44.269Z,98907.24
2019-01-11T11:55:14.905Z,98914.98
2019-01-11T11:57:45.559Z,98893.98
2019-01-11T12:00:22.753Z,98900.33
2019-01-11T12:02:53.385Z,98901.02
2019-01-11T12:05:23.954Z,98891.17
2019-01-11T12:07:54.546Z,98887.55
2019-01-11T12:10:25.119Z,98884.71
2019-01-11T12:12:55.654Z,98888.12
2019-01-11T12:15:26.234Z,98886.83
2019-01-11T12:17:56.739Z,98886.26
2019-01-11T12:20:40.547Z,98886.02
2019-01-11T12:23:11.205Z,98882.27
2019-01-11T12:25:41.777Z,98881.45
2019-01-11T12:28:12.378Z,98880.15
2019-01-11T12:30:42.952Z,98881.45
2019-01-11T12:33:13.471Z,98875.69
2019-01-11T12:35:44.082Z,98874.73
2019-01-11T12:38:14.647Z,98874.03
2019-01-11T12:40:45.189Z,98877.33
2019-01-11T12:43:15.763Z,98878.27
2019-01-11T12:45:46.329Z,98880.72
2019-01-11T12:48:16.894Z,98875.56
2019-01-11T12:50:47.476Z,98873.09
2019-01-11T12:53:18.039Z,98874.97
2019-01-11T12:55:48.617Z,98872.15
2019-01-11T12:58:19.204Z,98866.88
2019-01-11T13:00:49.748Z,98870.97
2019-01-11T13:03:20.287Z,98862.76
2019-01-11T13:05:50.851Z,98855.01
2019-01-11T13:08:21.482Z,98857.58
2019-01-11T13:10:52.074Z,98856.41
2019-01-11T13:13:22.679Z,98864.96
2019-01-11T13:15:53.308Z,98854.77
2019-01-11T13:18:23.896Z,98853.72
2019-01-11T13:20:54.490Z,98846.08
2019-01-11T13:23:25.026Z,98853.34
2019-01-11T13:25:55.623Z,98852.52
2019-01-11T13:28:26.188Z,98843.58
2019-01-11T13:30:56.795Z,98846.75
2019-01-11T13:33:27.376Z,98850.63
2019-01-11T13:35:57.942Z,98847.24
2019-01-11T13:38:28.507Z,98848.17
2019-01-11T13:40:59.084Z,98849.33
2019-01-11T13:43:29.641Z,98854.50
2019-01-11T13:46:00.254Z,98847.35
2019-01-11T13:48:33.820Z,98841.11
2019-01-11T13:51:04.472Z,98836.66
2019-01-11T13:53:35.031Z,98844.64
2019-01-11T13:56:05.745Z,98849.80
2019-01-11T13:58:36.291Z,98850.84
2019-01-11T14:01:06.850Z,98847.33
2019-01-11T14:03:37.434Z,98845.91
2019-01-11T14:06:08.159Z,98850.14
2019-01-11T14:08:38.684Z,98850.03
2019-01-11T14:11:09.276Z,98849.67
2019-01-11T14:13:41.928Z,98852.94
2019-01-11T14:16:12.569Z,98848.59
2019-01-11T14:18:43.109Z,98848.48
2019-01-11T14:21:13.676Z,98852.37
2019-01-11T14:23:44.270Z,98844.47
2019-01-11T14:26:14.819Z,98857.29
2019-01-11T14:28:48.053Z,98854.45
2019-01-11T14:31:18.643Z,98861.97
2019-01-11T14:33:49.180Z,98864.33
2019-01-11T14:36:19.735Z,98863.39
2019-01-11T14:38:50.258Z,98866.91
2019-01-11T14:41:21.309Z,98860.09
2019-01-11T14:43:51.963Z,98862.32
2019-01-11T14:46:22.576Z,98858.09
2019-01-11T14:48:53.110Z,98859.27
2019-01-11T14:51:23.709Z,98855.17
2019-01-11T14:53:54.330Z,98862.57
2019-01-11T14:56:24.903Z,98866.89
2019-01-11T14:58:55.478Z,98867.60
2019-01-11T15:01:26.033Z,98867.60
2019-01-11T15:03:56.590Z,98870.52
2019-01-11T15:06:27.201Z,98868.65
2019-01-11T15:08:57.628Z,98869.22
2019-01-11T15:11:28.175Z,98867.58
2019-01-11T15:13:58.786Z,98871.67
2019-01-11T15:16:29.419Z,98871.09
2019-01-11T15:19:00.010Z,98872.85
2019-01-11T15:21:30.607Z,98875.69
2019-01-11T15:24:01.147Z,98875.55
2019-01-11T15:26:31.721Z,98877.09
2019-01-11T15:29:05.698Z,98878.52
2019-01-11T15:31:36.334Z,98871.09
2019-01-11T15:34:06.878Z,98871.92
2019-01-11T15:36:37.648Z,98878.52
2019-01-11T15:39:10.357Z,98876.41
2019-01-11T15:41:43.910Z,98874.64
2019-01-11T15:44:14.619Z,98877.23
2019-01-11T15:46:45.186Z,98877.36
2019-01-11T15:49:15.731Z,98874.78
2019-01-11T15:51:46.266Z,98871.37
2019-01-11T15:54:16.877Z,98873.70
2019-01-11T15:56:47.441Z,98879.34
2019-01-11T15:59:18.030Z,98879.84
2019-01-11T16:01:54.267Z,98884.42
2019-01-11T16:04:24.832Z,98878.08
2019-01-11T16:06:55.635Z,98872.91
2019-01-11T16:10:08.860Z,98881.13
2019-01-11T16:12:53.834Z,98879.38
2019-01-11T16:16:16.053Z,98883.58
2019-01-11T16:18:46.735Z,98880.41
2019-01-11T16:21:17.300Z,98881.95
2019-01-11T16:23:47.959Z,98874.67
2019-01-11T16:26:18.540Z,98884.54
2019-01-11T16:28:49.156Z,98880.30
2019-01-11T16:31:21.376Z,98882.17
2019-01-11T16:33:51.989Z,98882.53
2019-01-11T16:36:22.524Z,98871.62
2019-01-11T16:38:53.101Z,98875.60
2019-01-11T16:41:23.870Z,98874.45
2019-01-11T16:43:54.411Z,98871.72
2019-01-11T16:46:24.958Z,98869.28
2019-01-11T16:48:55.581Z,98877.61
2019-01-11T16:51:26.129Z,98868.56
2019-01-11T16:53:56.734Z,98871.61
2019-01-11T16:56:27.239Z,98869.88
2019-01-11T16:58:57.886Z,98871.50
2019-01-11T17:01:28.851Z,98877.02
2019-01-11T17:03:59.417Z,98879.14
2019-01-11T17:06:29.949Z,98883.71
2019-01-11T17:09:01.790Z,98876.20
2019-01-11T17:11:32.403Z,98881.02
2019-01-11T17:14:02.988Z,98882.67
2019-01-11T17:16:33.558Z,98878.80
2019-01-11T17:19:04.208Z,98877.50
2019-01-11T17:21:34.774Z,98886.41
2019-01-11T17:24:05.934Z,98888.06
2019-01-11T17:26:36.447Z,98885.25
2019-01-11T17:29:06.975Z,98885.84
2019-01-11T17:31:37.552Z,98886.16
2019-01-11T17:34:08.919Z,98883.58
2019-01-11T17:36:39.432Z,98891.58
2019-01-11T17:39:10.819Z,98889.33
2019-01-11T17:41:41.488Z,98888.16
2019-01-11T17:44:12.151Z,98891.58
2019-01-11T17:46:43.400Z,98899.22
2019-01-11T17:49:15.101Z,98894.77
2019-01-11T17:51:45.713Z,98887.45
2019-01-11T17:54:16.278Z,98887.38
2019-01-11T17:56:47.612Z,98887.03
2019-01-11T17:59:19.975Z,98885.16
2019-01-11T18:01:52.259Z,98883.15
2019-01-11T18:04:23.016Z,98880.70
2019-01-11T18:06:53.567Z,98879.17
2019-01-11T18:09:24.931Z,98877.05
2019-01-11T18:11:55.646Z,98878.09
2019-01-11T18:14:26.424Z,98878.81
2019-01-11T18:16:56.942Z,98882.22
2019-01-11T18:19:27.564Z,98880.34
2019-01-11T18:21:58.137Z,98882.21
2019-01-11T18:24:28.672Z,98893.38
2019-01-11T18:27:01.413Z,98885.86
2019-01-11T18:29:32.013Z,98886.09
2019-01-11T18:32:02.616Z,98881.88
2019-01-11T18:34:33.195Z,98882.70
2019-01-11T18:37:03.785Z,98883.03
2019-01-11T18:39:35.583Z,98876.58
2019-01-11T18:42:06.188Z,98879.05
2019-01-11T18:44:36.769Z,98883.28
2019-01-11T18:47:08.019Z,98881.41
2019-01-11T18:49:38.567Z,98877.54
2019-01-11T18:52:09.159Z,98882.34
2019-01-11T18:54:39.704Z,98882.92
2019-01-11T18:57:10.386Z,98875.28
2019-01-11T18:59:43.221Z,98878.23
2019-01-11T19:02:13.808Z,98883.05
2019-01-11T19:04:44.360Z,98883.05
2019-01-11T19:07:18.014Z,98887.75
2019-01-11T19:09:48.649Z,98889.50
2019-01-11T19:12:23.940Z,98885.73
2019-01-11T19:14:54.585Z,98894.08
2019-01-11T19:17:25.148Z,98894.55
2019-01-11T19:19:55.787Z,98897.25
2019-01-11T19:22:27.418Z,98897.96
2019-01-11T19:24:59.460Z,98895.37
2019-01-11T19:27:30.056Z,98903.73
2019-01-11T19:30:00.786Z,98903.75
2019-01-11T19:32:31.379Z,98901.85
2019-01-11T19:35:01.954Z,98900.78
2019-01-11T19:37:34.760Z,98904.66
2019-01-11T19:40:07.014Z,98904.31
2019-01-11T19:42:37.717Z,98905.03
2019-01-11T19:45:10.705Z,98906.66
2019-01-11T19:47:44.019Z,98906.09
2019-01-11T19:50:20.519Z,98900.34
2019-01-11T19:52:51.439Z,98896.80
2019-01-11T19:55:23.871Z,98900.32
2019-01-11T19:57:54.518Z,98903.63
2019-01-11T20:00:29.904Z,98902.58
2019-01-11T20:03:00.492Z,98906.67
2019-01-11T20:05:31.105Z,98901.61
2019-01-11T20:08:01.633Z,98905.74
2019-01-11T20:10:34.303Z,98908.19
2019-01-11T20:13:04.924Z,98909.14
2019-01-11T20:15:35.720Z,98910.79
2019-01-11T20:18:07.167Z,98916.77
2019-01-11T20:20:37.847Z,98916.06
2019-01-11T20:23:09.950Z,98916.63
2019-01-11T20:25:40.640Z,98914.53
2019-01-11T20:28:11.206Z,98918.30
2019-01-11T20:30:44.070Z,98915.33
2019-01-11T20:33:14.644Z,98920.40
2019-01-11T20:35:48.553Z,98920.50
2019-01-11T20:38:19.134Z,98922.40
2019-01-11T20:40:49.764Z,98923.47
2019-01-11T20:43:20.299Z,98918.41
2019-01-11T20:45:50.907Z,98916.75
2019-01-11T20:48:21.443Z,98918.98
2019-01-11T20:50:54.334Z,98910.66
2019-01-11T20:53:24.892Z,98909.36
2019-01-11T20:55:55.487Z,98915.70
2019-01-11T20:58:26.039Z,98913.59
2019-01-11T21:00:58.690Z,98902.54
2019-01-11T21:03:29.353Z,98899.27
2019-01-11T21:05:59.920Z,98901.85
2019-01-11T21:08:30.465Z,98903.14
2019-01-11T21:11:01.047Z,98897.25
2019-01-11T21:13:31.600Z,98902.42
2019-01-11T21:16:02.191Z,98901.48
2019-01-11T21:18:32.698Z,98894.08
2019-01-11T21:21:03.309Z,98901.13
2019-01-11T21:23:33.850Z,98901.48
2019-01-11T21:26:04.502Z,98908.53
2019-01-11T21:28:35.009Z,98901.46
2019-01-11T21:31:05.544Z,98902.65
2019-01-11T21:33:36.103Z,98903.23
2019-01-11T21:36:06.675Z,98906.64
2019-01-11T21:38:37.171Z,98907.33
2019-01-11T21:41:07.805Z,98905.47
2019-01-11T21:43:38.293Z,98903.20
2019-01-11T21:46:08.924Z,98909.42
2019-01-11T21:48:39.480Z,98908.63
2019-01-11T21:51:10.033Z,98904.97
2019-01-11T21:53:40.682Z,98902.75
2019-01-11T21:56:11.255Z,98905.66
2019-01-11T21:58:41.880Z,98909.07
2019-01-11T22:01:12.462Z,98907.31
2019-01-11T22:03:43.083Z,98902.50
2019-01-11T22:06:13.618Z,98904.63
2019-01-11T22:08:44.216Z,98903.80
2019-01-11T22:11:17.836Z,98902.63
2019-01-11T22:13:48.369Z,98899.20
2019-01-11T22:16:18.928Z,98901.21
2019-01-11T22:18:49.440Z,98904.02
2019-01-11T22:21:20.023Z,98907.42
2019-01-11T22:23:50.531Z,98907.06
2019-01-11T22:26:21.108Z,98908.58
2019-01-11T22:28:51.649Z,98919.75
2019-01-11T22:31:22.179Z,98911.99
2019-01-11T22:33:52.730Z,98911.41
2019-01-11T22:36:23.284Z,98910.92
2019-01-11T22:38:53.811Z,98913.86
2019-01-11T22:41:24.383Z,98919.50
2019-01-11T22:43:54.932Z,98920.47
2019-01-11T22:46:25.513Z,98910.81
2019-01-11T22:48:56.035Z,98917.50
2019-01-11T22:51:26.606Z,98914.44
2019-01-11T22:53:57.214Z,98918.68
2019-01-11T22:56:27.751Z,98918.07
2019-01-11T22:58:58.236Z,98915.02
2019-01-11T23:02:12.130Z,98917.14
2019-01-11T23:04:42.682Z,98914.91
2019-01-11T23:08:00.517Z,98920.08
2019-01-11T23:11:26.901Z,98914.91
2019-01-11T23:13:57.557Z,98917.61
2019-01-11T23:17:16.287Z,98919.84
2019-01-11T23:19:48.484Z,98920.30
2019-01-11T23:22:19.030Z,98918.41
2019-01-11T23:24:49.620Z,98921.81
2019-01-11T23:27:20.196Z,98921.48
2019-01-11T23:29:50.698Z,98920.05
2019-01-11T23:32:21.240Z,98927.70
2019-01-11T23:34:51.825Z,98916.39
2019-01-11T23:37:22.333Z,98915.59
2019-01-11T23:39:52.851Z,98923.58
2019-01-11T23:42:23.346Z,98920.63
2019-01-11T23:44:53.915Z,98919.48
2019-01-11T23:47:24.445Z,98920.16
2019-01-11T23:49:54.966Z,98918.77
2019-01-11T23:52:25.495Z,98915.68
2019-01-11T23:54:56.045Z,98914.75
2019-01-11T23:57:26.596Z,98915.21
2019-01-11T23:59:57.128Z,98915.93
